Time;durP1;ratioP1;P1;durP2;ratioP2;P2;SDS_P1;SDS_P2;PMS_P1;PMS_P2;Temp;Humidity;BMP_temperature;BMP_pressure;BME280_temperature;BME280_humidity;BME280_pressure;Samples;Min_cycle;Max_cycle;Signal;HPM_P1;HPM_P2
2022/11/26 00:02:28;;;;;;;50.80;31.70;;;;;;;3.71;91.74;101151.41;1439509;90;21540;-83
2022/11/26 00:04:56;;;;;;;45.80;29.07;;;;;;;3.71;91.82;101150.09;1428004;90;23460;-79
2022/11/26 00:07:26;;;;;;;45.07;27.53;;;;;;;3.68;91.94;101147.65;1456820;90;22151;-82
2022/11/26 00:09:54;;;;;;;45.30;26.33;;;;;;;3.69;91.76;101150.67;1513581;90;22167;-79
2022/11/26 00:12:24;;;;;;;53.10;30.23;;;;;;;3.68;92.09;101147.65;1366879;91;21953;-84
2022/11/26 00:14:51;;;;;;;44.93;29.10;;;;;;;3.69;91.95;101147.58;1360338;90;22099;-83
2022/11/26 00:17:18;;;;;;;49.57;30.87;;;;;;;3.68;91.85;101141.95;1367385;90;21406;-84
2022/11/26 00:19:46;;;;;;;51.23;29.03;;;;;;;3.71;91.79;101148.34;1384819;90;22162;-82
2022/11/26 00:22:28;;;;;;;44.77;29.70;;;;;;;3.70;91.83;101153.66;1370848;90;22207;-82
2022/11/26 00:24:55;;;;;;;48.73;29.97;;;;;;;3.70;91.48;101153.66;1431833;90;22244;-83
2022/11/26 00:27:26;;;;;;;44.73;28.93;;;;;;;3.66;91.52;101159.53;1419545;90;22162;-82
2022/11/26 00:29:53;;;;;;;41.90;27.82;;;;;;;3.66;91.52;101159.53;1433061;90;21478;-83
2022/11/26 00:32:24;;;;;;;42.53;28.47;;;;;;;3.66;91.52;101157.38;1436758;89;21398;-82
2022/11/26 00:34:51;;;;;;;47.78;27.02;;;;;;;3.66;91.66;101153.45;1434326;90;22679;-81
2022/11/26 00:37:23;;;;;;;42.20;27.80;;;;;;;3.67;91.72;101151.20;1355941;91;21304;-84
2022/11/26 00:39:50;;;;;;;43.73;27.67;;;;;;;3.71;91.67;101155.33;1366207;91;23003;-83
2022/11/26 00:42:17;;;;;;;43.10;27.87;;;;;;;3.69;91.43;101151.51;1380078;90;22094;-84
2022/11/26 00:44:43;;;;;;;48.33;30.60;;;;;;;3.69;91.43;101151.51;1441198;90;21446;-81
2022/11/26 00:47:10;;;;;;;45.67;28.37;;;;;;;3.71;91.41;101154.02;1443326;90;22302;-84
2022/11/26 00:49:36;;;;;;;40.53;26.97;;;;;;;3.71;91.33;101157.95;1441870;90;22120;-83
2022/11/26 00:52:04;;;;;;;43.87;27.70;;;;;;;3.71;91.37;101161.44;1436385;90;23210;-82
2022/11/26 00:54:31;;;;;;;46.07;27.33;;;;;;;3.64;91.54;101157.92;1434081;90;23174;-84
2022/11/26 00:56:58;;;;;;;45.47;29.13;;;;;;;3.64;91.54;101171.68;1443115;90;21640;-82
2022/11/26 00:59:24;;;;;;;45.67;26.53;;;;;;;3.67;91.64;101171.68;1439423;89;21323;-84
2022/11/26 01:01:50;;;;;;;39.83;25.07;;;;;;;3.70;91.70;101171.98;1428868;90;22598;-81
2022/11/26 01:04:16;;;;;;;38.27;25.60;;;;;;;3.75;91.64;101175.20;1437535;90;21390;-84
2022/11/26 01:06:44;;;;;;;44.80;27.20;;;;;;;3.70;91.80;101167.58;1435139;90;21339;-85
2022/11/26 01:09:15;;;;;;;46.00;29.27;;;;;;;3.70;91.80;101167.58;1436737;90;21391;-82
2022/11/26 01:11:42;;;;;;;46.30;29.87;;;;;;;3.75;91.75;101174.72;1375699;90;21950;-79
2022/11/26 01:14:18;;;;;;;43.77;28.43;;;;;;;3.72;91.59;101182.75;1368072;90;22136;-78
2022/11/26 01:16:45;;;;;;;50.87;28.37;;;;;;;3.72;91.59;101182.75;1362607;91;22299;-83
2022/11/26 01:19:14;;;;;;;43.23;26.97;;;;;;;3.70;91.72;101187.69;1364595;90;22919;-83
2022/11/26 01:21:40;;;;;;;44.63;29.37;;;;;;;3.69;91.82;101188.63;1381619;90;22240;-82
2022/11/26 01:24:07;;;;;;;48.13;27.70;;;;;;;3.71;91.85;101188.05;1439454;89;22049;-84
2022/11/26 01:26:40;;;;;;;42.40;26.93;;;;;;;3.74;91.97;101187.88;1435594;90;21509;-85
2022/11/26 01:29:06;;;;;;;45.17;28.43;;;;;;;3.81;91.83;101184.02;1435007;90;21438;-83
2022/11/26 01:31:33;;;;;;;45.17;28.73;;;;;;;3.78;91.67;101186.80;1429082;90;22356;-81
2022/11/26 01:33:59;;;;;;;48.40;29.07;;;;;;;3.78;91.67;101186.80;1439229;90;21363;-83
2022/11/26 01:36:33;;;;;;;43.47;27.27;;;;;;;3.76;91.60;101192.58;1440064;89;21408;-84
2022/11/26 01:39:18;;;;;;;43.87;27.07;;;;;;;3.76;91.60;101192.58;1370875;90;21527;-86
2022/11/26 01:42:07;;;;;;;58.10;33.00;;;;;;;3.79;91.51;101204.19;1517963;90;21932;-85
2022/11/26 01:44:36;;;;;;;61.87;35.17;;;;;;;3.74;91.46;101203.16;1368945;91;23026;-85
2022/11/26 01:47:23;;;;;;;46.70;28.30;;;;;;;3.73;91.79;101203.23;1362238;92;22257;-85
2022/11/26 01:50:29;;;;;;;46.57;29.37;;;;;;;3.73;91.68;101205.84;1516953;90;22268;-82
2022/11/26 01:53:13;;;;;;;41.53;26.67;;;;;;;3.73;91.85;101200.61;1372928;91;22055;-85
2022/11/26 01:55:47;;;;;;;44.43;25.97;;;;;;;3.77;91.90;101196.88;1481445;90;22093;-84
2022/11/26 01:58:18;;;;;;;43.23;26.30;;;;;;;3.78;91.80;101194.66;1365700;91;21310;-83
2022/11/26 02:00:46;;;;;;;46.05;28.38;;;;;;;3.78;91.80;101194.66;1360192;92;21972;-82
2022/11/26 02:03:12;;;;;;;43.47;27.43;;;;;;;3.76;91.70;101193.89;1413517;90;21429;-81
2022/11/26 02:08:05;;;;;;;48.83;30.13;;;;;;;3.74;91.75;101190.50;1488698;85;25767;-83
2022/11/26 02:10:33;;;;;;;43.80;27.97;;;;;;;3.68;91.95;101196.08;1471525;87;22901;-79
2022/11/26 02:12:59;;;;;;;48.20;28.73;;;;;;;3.68;91.95;101196.08;1469409;87;21701;-79
2022/11/26 02:15:30;;;;;;;76.37;41.47;;;;;;;3.72;91.86;101206.78;1476014;87;22882;-80
2022/11/26 02:18:08;;;;;;;86.05;43.58;;;;;;;3.72;91.75;101201.55;1471987;87;22316;-79
2022/11/26 02:20:59;;;;;;;72.33;39.13;;;;;;;3.71;91.64;101201.14;1471893;87;21530;-80
2022/11/26 02:24:05;;;;;;;87.00;45.73;;;;;;;3.69;92.06;101200.41;1396970;89;22059;-81
2022/11/26 02:26:57;;;;;;;55.60;34.37;;;;;;;3.67;91.80;101199.64;1498634;87;22126;-83
2022/11/26 02:30:02;;;;;;;57.63;34.50;;;;;;;3.64;91.94;101205.05;1559584;87;22131;-79
2022/11/26 02:32:57;;;;;;;98.57;47.37;;;;;;;3.63;91.93;101208.61;1542629;87;22159;-81
2022/11/26 02:35:34;;;;;;;57.87;32.83;;;;;;;3.59;91.87;101212.67;1420569;90;22271;-81
2022/11/26 02:38:05;;;;;;;45.17;27.40;;;;;;;3.61;91.90;101216.05;1435182;90;22287;-77
2022/11/26 02:40:32;;;;;;;44.13;27.80;;;;;;;3.63;91.97;101212.53;1434530;90;22444;-80
2022/11/26 02:42:57;;;;;;;69.13;36.27;;;;;;;3.63;91.94;101219.08;1432172;90;21619;-80
2022/11/26 02:45:29;;;;;;;87.60;41.10;;;;;;;3.63;92.06;101228.23;1439370;90;23101;-81
2022/11/26 02:47:57;;;;;;;;;;;;;;;3.64;92.24;101235.16;1439566;90;21487;-81
2022/11/26 02:50:28;;;;;;;93.13;42.60;;;;;;;3.62;92.45;101229.98;1431583;90;20370;-80
2022/11/26 02:52:57;;;;;;;93.12;46.20;;;;;;;3.59;92.32;101229.68;1438419;90;22273;-82
2022/11/26 02:55:29;;;;;;;87.77;42.27;;;;;;;3.58;92.39;101224.55;1362346;90;21384;-81
2022/11/26 02:57:56;;;;;;;98.07;42.57;;;;;;;3.59;92.45;101227.53;1418661;90;23257;-78
2022/11/26 03:00:23;;;;;;;57.07;32.70;;;;;;;3.61;92.56;101237.00;1435979;90;22310;-81
2022/11/26 03:03:24;;;;;;;46.60;27.80;;;;;;;3.65;92.51;101242.06;1430108;90;22399;-82
2022/11/26 03:05:46;;;;;;;42.30;26.47;;;;;;;3.68;92.55;101239.28;1440009;90;22541;-80
2022/11/26 03:08:12;;;;;;;43.80;28.17;;;;;;;3.68;92.43;101240.12;1425755;90;24109;-79
2022/11/26 03:10:38;;;;;;;44.83;29.43;;;;;;;3.66;92.29;101238.54;1466576;88;22246;-81
2022/11/26 03:13:04;;;;;;;50.80;32.57;;;;;;;3.62;92.29;101235.22;1470028;88;22246;-81
2022/11/26 03:15:30;;;;;;;46.43;28.07;;;;;;;3.60;92.32;101241.86;1464049;88;22104;-80
2022/11/26 03:17:56;;;;;;;55.43;31.50;;;;;;;3.59;92.43;101242.77;1463297;88;23046;-84
2022/11/26 03:20:23;;;;;;;44.43;28.20;;;;;;;3.58;92.65;101239.78;1457122;88;22180;-84
2022/11/26 03:22:49;;;;;;;44.47;26.10;;;;;;;3.60;92.76;101232.70;1462927;88;21422;-77
2022/11/26 03:25:15;;;;;;;41.73;27.17;;;;;;;3.63;93.07;101235.62;1459450;88;23102;-78
2022/11/26 03:27:41;;;;;;;42.90;27.07;;;;;;;3.67;93.11;101229.75;1457919;88;22265;-81
2022/11/26 03:30:09;;;;;;;46.27;27.70;;;;;;;3.65;93.31;101232.91;1463574;88;22286;-79
2022/11/26 03:32:36;;;;;;;48.67;30.60;;;;;;;3.63;93.49;101233.48;1464025;88;23185;-79
2022/11/26 03:35:03;;;;;;;45.47;27.07;;;;;;;3.59;93.26;101238.84;1464314;88;22322;-81
2022/11/26 03:37:29;;;;;;;46.70;29.50;;;;;;;3.60;93.22;101241.86;1465490;88;23170;-82
2022/11/26 03:39:55;;;;;;;45.53;29.07;;;;;;;3.60;93.28;101247.10;1465235;88;22325;-81
2022/11/26 03:42:21;;;;;;;47.90;30.00;;;;;;;3.60;93.34;101246.26;1467120;88;22186;-80
2022/11/26 03:44:47;;;;;;;45.60;29.63;;;;;;;3.61;93.57;101253.17;1463166;88;21525;-79
2022/11/26 03:47:13;;;;;;;46.10;28.27;;;;;;;3.60;93.82;101243.17;1462369;88;22359;-81
2022/11/26 03:49:39;;;;;;;45.57;29.27;;;;;;;3.65;93.66;101252.53;1463342;88;22272;-81
2022/11/26 03:52:05;;;;;;;44.60;30.40;;;;;;;3.64;93.65;101250.39;1462215;88;22232;-78
2022/11/26 03:54:31;;;;;;;48.70;30.40;;;;;;;3.67;93.67;101250.69;1464671;88;22108;-76
2022/11/26 03:56:58;;;;;;;44.60;30.33;;;;;;;3.68;93.68;101252.38;1468366;88;22262;-82
2022/11/26 03:59:24;;;;;;;49.30;33.47;;;;;;;3.67;93.54;101250.69;1467732;88;22158;-81
2022/11/26 04:01:50;;;;;;;53.03;32.43;;;;;;;3.61;93.64;101257.94;1466692;88;22183;-80
2022/11/26 04:04:16;;;;;;;51.20;33.10;;;;;;;3.54;93.89;101256.59;1462917;88;21493;-82
2022/11/26 04:06:42;;;;;;;57.60;34.70;;;;;;;3.51;94.29;101258.07;1461699;88;23215;-82
2022/11/26 04:09:08;;;;;;;49.10;31.37;;;;;;;3.50;94.52;101261.59;1453242;89;22204;-82
2022/11/26 04:11:34;;;;;;;52.10;31.30;;;;;;;3.48;94.73;101256.05;1445359;89;21450;-80
2022/11/26 04:14:00;;;;;;;58.17;34.73;;;;;;;3.49;95.01;101257.77;1450485;89;23229;-81
2022/11/26 04:16:27;;;;;;;58.37;33.10;;;;;;;3.42;95.61;101253.30;1450496;89;22100;-80
2022/11/26 04:18:53;;;;;;;56.70;33.60;;;;;;;3.41;95.52;101256.86;1449157;89;22100;-83
2022/11/26 04:21:19;;;;;;;60.93;37.03;;;;;;;3.35;95.72;101251.48;1435608;89;22226;-82
2022/11/26 04:23:45;;;;;;;62.73;34.63;;;;;;;3.34;95.76;101260.73;1444336;89;21450;-81
2022/11/26 04:26:11;;;;;;;64.13;36.47;;;;;;;3.35;95.63;101263.72;1446758;89;22207;-81
2022/11/26 04:28:37;;;;;;;64.37;36.47;;;;;;;3.36;95.74;101262.79;1448502;89;21470;-79
2022/11/26 04:31:03;;;;;;;52.00;32.30;;;;;;;3.39;95.68;101260.01;1447648;89;22158;-81
2022/11/26 04:33:29;;;;;;;59.57;34.77;;;;;;;3.45;95.92;101264.07;1443322;89;21465;-84
2022/11/26 04:35:56;;;;;;;58.30;33.90;;;;;;;3.48;95.74;101272.62;1444141;89;22200;-84
2022/11/26 04:38:22;;;;;;;52.07;32.47;;;;;;;3.50;95.66;101273.38;1451593;89;21727;-82
2022/11/26 04:40:48;;;;;;;60.70;35.80;;;;;;;3.51;95.65;101269.84;1450169;89;22274;-81
2022/11/26 04:43:14;;;;;;;50.60;31.93;;;;;;;3.51;95.60;101268.55;1443403;89;22333;-79
2022/11/26 04:45:40;;;;;;;54.13;30.90;;;;;;;3.46;95.68;101262.70;1449096;89;22352;-79
2022/11/26 04:48:07;;;;;;;50.37;29.73;;;;;;;3.46;95.54;101258.77;1447497;89;22866;-80
2022/11/26 04:50:33;;;;;;;45.20;30.30;;;;;;;3.47;95.61;101264.84;1452659;89;23189;-80
2022/11/26 04:52:59;;;;;;;41.90;27.70;;;;;;;3.47;95.62;101265.69;1449941;89;22298;-80
2022/11/26 04:55:25;;;;;;;44.80;29.00;;;;;;;3.49;95.88;101268.23;1446687;89;23059;-80
2022/11/26 04:57:51;;;;;;;44.07;29.03;;;;;;;3.49;95.84;101280.85;1452693;89;22202;-78
2022/11/26 05:00:18;;;;;;;44.43;27.60;;;;;;;3.49;95.48;101279.55;1451487;89;21502;-80
2022/11/26 05:02:44;;;;;;;66.67;41.40;;;;;;;3.43;96.14;101286.42;1456097;89;22588;-78
2022/11/26 05:05:11;;;;;;;58.37;35.90;;;;;;;3.37;96.94;101289.36;1451447;89;22182;-78
2022/11/26 05:07:38;;;;;;;63.57;41.77;;;;;;;3.36;96.50;101288.95;1447318;88;22330;-80
2022/11/26 05:10:07;;;;;;;47.73;28.50;;;;;;;3.38;96.58;101290.57;1469042;88;22210;-81
2022/11/26 05:12:34;;;;;;;45.37;28.70;;;;;;;3.41;96.55;101286.11;1387985;88;22343;-78
2022/11/26 05:15:00;;;;;;;45.87;29.97;;;;;;;3.42;96.71;101298.26;1384631;89;23335;-79
2022/11/26 05:17:27;;;;;;;51.47;34.10;;;;;;;3.37;97.91;101297.21;1390531;88;21546;-82
2022/11/26 05:19:53;;;;;;;65.43;41.90;;;;;;;3.38;97.48;101298.89;1391969;88;22085;-82
2022/11/26 05:22:19;;;;;;;70.63;45.93;;;;;;;3.44;97.28;101292.48;1386633;89;22126;-81
2022/11/26 05:24:45;;;;;;;66.87;42.90;;;;;;;3.47;97.23;101302.80;1390384;90;22933;-84
2022/11/26 05:27:11;;;;;;;67.80;40.43;;;;;;;3.47;97.20;101288.40;1392516;89;21413;-82
2022/11/26 05:29:37;;;;;;;53.23;32.10;;;;;;;3.47;97.20;101288.40;1398097;88;21458;-84
2022/11/26 05:32:04;;;;;;;47.30;31.83;;;;;;;3.50;97.21;101297.39;1386042;88;22366;-83
2022/11/26 05:34:30;;;;;;;49.27;29.77;;;;;;;3.49;97.07;101303.56;1437677;88;22403;-80
2022/11/26 05:36:56;;;;;;;47.60;28.90;;;;;;;3.48;97.23;101307.97;1465599;88;22495;-82
2022/11/26 05:39:22;;;;;;;44.93;29.60;;;;;;;3.50;97.09;101309.17;1468659;88;22283;-81
2022/11/26 05:41:48;;;;;;;54.40;32.57;;;;;;;3.51;97.13;101316.09;1459009;88;21464;-81
2022/11/26 05:44:14;;;;;;;52.53;32.50;;;;;;;3.50;97.40;101319.17;1467213;88;21472;-81
2022/11/26 05:46:42;;;;;;;55.70;32.87;;;;;;;3.49;97.25;101320.11;1463538;88;23090;-82
2022/11/26 05:49:08;;;;;;;54.37;35.37;;;;;;;3.46;97.65;101320.27;1461047;88;22093;-79
2022/11/26 05:51:35;;;;;;;51.97;34.27;;;;;;;3.46;97.76;101322.89;1465750;88;22197;-81
2022/11/26 05:54:01;;;;;;;54.77;32.37;;;;;;;3.49;97.66;101325.81;1435425;90;23094;-83
2022/11/26 05:56:27;;;;;;;67.40;39.87;;;;;;;3.49;97.66;101330.58;1423840;91;22264;-83
2022/11/26 05:58:53;;;;;;;96.37;51.43;;;;;;;3.52;97.53;101342.20;1419920;91;22370;-81
2022/11/26 06:01:19;;;;;;;58.03;36.70;;;;;;;3.56;97.65;101334.55;1415688;91;22224;-79
2022/11/26 06:03:45;;;;;;;56.30;35.97;;;;;;;3.61;97.99;101336.95;1426401;91;22180;-82
2022/11/26 06:06:11;;;;;;;60.83;36.27;;;;;;;3.64;98.17;101345.10;1420961;91;23154;-80
2022/11/26 06:08:38;;;;;;;54.90;33.90;;;;;;;3.67;98.12;101346.25;1417108;91;22228;-79
2022/11/26 06:11:04;;;;;;;63.83;37.30;;;;;;;3.70;98.15;101348.23;1423840;91;22656;-79
2022/11/26 06:13:30;;;;;;;61.97;36.63;;;;;;;3.69;98.44;101356.19;1416208;91;22247;-80
2022/11/26 06:15:57;;;;;;;48.33;31.10;;;;;;;3.69;98.25;101360.11;1423585;91;22248;-80
2022/11/26 06:18:23;;;;;;;49.10;31.43;;;;;;;3.73;98.16;101356.39;1414864;92;21524;-78
2022/11/26 06:20:49;;;;;;;46.23;30.40;;;;;;;3.73;98.16;101356.39;1429311;91;21489;-79
2022/11/26 06:23:15;;;;;;;48.17;31.07;;;;;;;3.75;98.44;101356.70;1456644;88;21734;-77
2022/11/26 06:25:41;;;;;;;52.30;32.87;;;;;;;3.71;98.66;101353.88;1455318;88;21429;-79
2022/11/26 06:28:08;;;;;;;54.80;32.70;;;;;;;3.71;98.66;101353.88;1457906;88;21561;-80
2022/11/26 06:30:34;;;;;;;52.40;32.20;;;;;;;3.79;98.54;101365.23;1460241;88;22263;-80
2022/11/26 06:33:00;;;;;;;50.47;31.57;;;;;;;3.81;98.62;101371.24;1462966;88;22114;-77
2022/11/26 06:35:26;;;;;;;46.70;31.10;;;;;;;3.83;98.83;101375.48;1453098;88;23055;-81
2022/11/26 06:37:52;;;;;;;47.77;30.87;;;;;;;3.88;98.86;101383.06;1458835;88;22173;-81
2022/11/26 06:40:20;;;;;;;46.57;30.67;;;;;;;3.92;98.79;101375.45;1459771;88;23237;-77
2022/11/26 06:42:50;;;;;;;73.87;45.77;;;;;;;3.97;98.65;101372.13;1452292;88;21590;-82
2022/11/26 06:45:17;;;;;;;60.52;39.08;;;;;;;4.01;98.49;101381.50;1457204;88;21473;-81
2022/11/26 06:47:46;;;;;;;58.70;35.53;;;;;;;4.05;98.36;101390.88;1463776;88;22551;-80
2022/11/26 06:50:14;;;;;;;66.33;38.83;;;;;;;4.04;98.38;101389.19;1380381;88;22090;-77
2022/11/26 06:52:41;;;;;;;54.23;36.47;;;;;;;4.06;98.34;101385.64;1444840;88;23719;-77
2022/11/26 06:55:08;;;;;;;50.27;32.37;;;;;;;4.05;98.43;101385.64;1460877;88;21832;-79
2022/11/26 06:57:34;;;;;;;55.70;34.13;;;;;;;4.10;98.14;101395.04;1460861;88;21561;-79
2022/11/26 07:00:00;;;;;;;50.70;34.70;;;;;;;4.14;98.00;101399.17;1456614;88;21495;-81
2022/11/26 07:02:26;;;;;;;51.80;31.50;;;;;;;4.16;98.05;101396.86;1461030;88;21713;-81
2022/11/26 07:04:52;;;;;;;62.40;38.37;;;;;;;4.22;98.18;101399.61;1464275;88;21517;-82
2022/11/26 07:07:18;;;;;;;73.30;46.83;;;;;;;4.28;98.15;101400.59;1458907;88;22135;-80
2022/11/26 07:09:45;;;;;;;83.77;51.90;;;;;;;4.33;98.17;101404.28;1470989;88;22113;-79
2022/11/26 07:12:11;;;;;;;75.20;45.97;;;;;;;4.35;98.21;101401.12;1468539;88;21517;-81
2022/11/26 07:14:37;;;;;;;73.20;50.53;;;;;;;4.32;98.39;101406.06;1473243;88;21612;-81
2022/11/26 07:17:03;;;;;;;55.70;36.17;;;;;;;4.34;97.88;101408.11;1470619;88;21398;-81
2022/11/26 07:19:29;;;;;;;52.97;35.20;;;;;;;4.34;97.92;101409.42;1467911;88;22099;-78
2022/11/26 07:21:55;;;;;;;57.37;36.50;;;;;;;4.32;98.32;101406.06;1466150;88;21479;-79
2022/11/26 07:24:21;;;;;;;55.97;34.67;;;;;;;4.33;98.47;101413.45;1468789;88;21630;-78
2022/11/26 07:26:47;;;;;;;62.07;39.37;;;;;;;4.33;98.44;101412.98;1469541;88;21620;-81
2022/11/26 07:29:14;;;;;;;62.30;37.90;;;;;;;4.35;98.95;101415.06;1452790;88;22521;-80
2022/11/26 07:31:40;;;;;;;57.30;38.70;;;;;;;4.38;98.54;101414.89;1464941;88;22325;-78
2022/11/26 07:34:06;;;;;;;57.97;37.23;;;;;;;4.42;98.59;101414.26;1473861;88;21471;-81
2022/11/26 07:36:32;;;;;;;58.47;37.63;;;;;;;4.46;98.61;101414.45;1470378;88;21683;-79
2022/11/26 07:39:01;;;;;;;57.87;38.13;;;;;;;4.47;98.27;101419.63;1466754;88;21435;-83
2022/11/26 07:41:28;;;;;;;54.50;34.57;;;;;;;4.52;98.16;101425.47;1469070;88;22380;-85
2022/11/26 07:44:00;;;;;;;48.27;31.33;;;;;;;4.57;98.25;101426.52;1465540;88;22640;-87
2022/11/26 07:46:26;;;;;;;60.40;37.43;;;;;;;4.62;98.16;101424.48;1473241;88;21450;-87
2022/11/26 07:48:54;;;;;;;55.27;37.07;;;;;;;4.69;97.94;101422.36;1471944;88;21450;-86
2022/11/26 07:51:27;;;;;;;61.23;38.97;;;;;;;4.75;97.90;101427.30;1471484;88;21465;-85
2022/11/26 07:53:55;;;;;;;55.20;36.70;;;;;;;4.79;97.46;101424.86;1475096;88;22877;-85
2022/11/26 07:56:21;;;;;;;59.60;38.83;;;;;;;4.81;97.35;101434.81;1393417;89;21340;-86
2022/11/26 07:58:48;;;;;;;61.87;40.40;;;;;;;4.85;96.95;101437.63;1396455;88;21379;-83
2022/11/26 08:01:25;;;;;;;73.90;46.33;;;;;;;4.85;96.41;101446.81;1394454;89;21473;-85
2022/11/26 08:04:04;;;;;;;68.70;45.00;;;;;;;4.87;96.36;101442.34;1554612;88;21340;-88
2022/11/26 08:06:32;;;;;;;62.73;39.53;;;;;;;4.91;96.29;101451.70;1522954;88;21531;-87
2022/11/26 08:09:01;;;;;;;56.43;35.43;;;;;;;4.91;95.72;101443.84;1424792;88;21347;-87
2022/11/26 08:11:30;;;;;;;57.50;37.53;;;;;;;4.88;95.12;101445.80;1479830;88;21583;-87
2022/11/26 08:14:04;;;;;;;53.53;34.70;;;;;;;4.90;95.42;101453.97;1446065;88;21553;-86
2022/11/26 08:16:31;;;;;;;54.30;35.50;;;;;;;4.94;95.51;101446.29;1436397;90;21609;-88
2022/11/26 08:19:01;;;;;;;52.70;35.47;;;;;;;5.01;95.58;101454.68;1447204;88;21506;-85
2022/11/26 08:21:28;;;;;;;47.53;30.37;;;;;;;5.09;95.45;101459.47;1466284;88;22257;-86
2022/11/26 08:23:54;;;;;;;58.23;38.13;;;;;;;5.13;95.05;101461.01;1447178;88;21494;-85
2022/11/26 08:26:22;;;;;;;63.73;40.73;;;;;;;5.15;94.31;101457.81;1451920;88;22874;-86
2022/11/26 08:28:48;;;;;;;67.70;43.23;;;;;;;5.16;94.31;101462.14;1463700;88;21458;-89
2022/11/26 08:31:15;;;;;;;67.33;42.17;;;;;;;5.21;94.62;101456.17;1460568;88;21457;-87
2022/11/26 08:33:42;;;;;;;60.43;39.53;;;;;;;5.26;94.26;101453.27;1434157;88;23923;-85
2022/11/26 08:36:11;;;;;;;65.47;40.33;;;;;;;5.26;93.38;101460.67;1452715;88;21465;-88
2022/11/26 08:38:37;;;;;;;56.47;37.57;;;;;;;5.31;94.06;101464.36;1452120;89;21441;-86
2022/11/26 08:41:10;;;;;;;59.53;39.33;;;;;;;5.41;94.23;101458.49;1467854;88;21492;-84
2022/11/26 08:43:38;;;;;;;65.23;38.90;;;;;;;5.50;93.98;101454.95;1466508;88;21442;-85
2022/11/26 08:46:05;;;;;;;67.93;42.47;;;;;;;5.58;93.25;101460.58;1459595;88;21569;-89
2022/11/26 08:48:32;;;;;;;71.07;44.73;;;;;;;5.60;92.66;101467.44;1445135;88;21546;-87
2022/11/26 08:51:05;;;;;;;87.23;51.70;;;;;;;5.64;92.13;101468.13;1443550;88;21427;-88
2022/11/26 08:53:33;;;;;;;61.90;41.80;;;;;;;5.67;92.60;101469.25;1466306;88;22455;-86
2022/11/26 08:56:03;;;;;;;63.03;40.87;;;;;;;5.71;92.36;101473.85;1455236;88;21531;-87
2022/11/26 08:58:33;;;;;;;60.08;37.70;;;;;;;5.72;91.88;101482.94;1450484;88;21488;-89
2022/11/26 09:01:01;;;;;;;65.90;42.63;;;;;;;5.75;91.69;101482.75;1468043;88;22109;-84
2022/11/26 09:03:31;;;;;;;59.60;39.97;;;;;;;5.79;91.80;101476.88;1430703;89;23784;-85
2022/11/26 09:06:00;;;;;;;63.03;40.97;;;;;;;5.77;90.17;101478.73;1421657;90;22405;-88
2022/11/26 09:08:26;;;;;;;64.77;41.53;;;;;;;5.75;90.11;101484.55;1437598;88;21398;-88
2022/11/26 09:10:55;;;;;;;68.60;41.87;;;;;;;5.79;90.59;101485.59;1450205;88;22368;-87
2022/11/26 09:13:21;;;;;;;65.80;39.57;;;;;;;5.86;90.88;101493.95;1445288;88;21479;-88
2022/11/26 09:15:49;;;;;;;63.13;41.00;;;;;;;5.86;90.28;101488.22;1472496;88;21544;-88
2022/11/26 09:18:16;;;;;;;104.17;61.93;;;;;;;5.87;90.26;101489.09;1396087;88;21368;-86
2022/11/26 09:20:43;;;;;;;109.67;65.93;;;;;;;5.87;89.43;101488.62;1458856;88;22331;-86
2022/11/26 09:23:09;;;;;;;89.87;56.97;;;;;;;5.93;90.10;101493.11;1475280;88;22115;-87
2022/11/26 09:25:38;;;;;;;71.03;45.37;;;;;;;6.01;90.34;101488.27;1457522;88;21434;-88
2022/11/26 09:28:05;;;;;;;84.13;50.23;;;;;;;6.01;89.28;101490.90;1474219;88;21567;-87
2022/11/26 09:30:32;;;;;;;73.80;45.57;;;;;;;6.00;89.15;101494.00;1474714;88;21464;-88
2022/11/26 09:32:58;;;;;;;80.80;49.90;;;;;;;6.01;89.04;101497.47;1471654;88;21413;-88
2022/11/26 09:35:24;;;;;;;67.83;41.27;;;;;;;6.00;88.99;101490.06;1454528;88;22010;-89
2022/11/26 09:37:51;;;;;;;64.80;41.63;;;;;;;6.06;88.65;101492.79;1471271;88;21443;-88
2022/11/26 09:40:19;;;;;;;64.17;41.60;;;;;;;6.04;87.12;101488.09;1471565;88;21479;-87
2022/11/26 09:43:09;;;;;;;75.83;47.00;;;;;;;6.08;87.89;101489.61;1474931;88;21569;-88
2022/11/26 09:45:47;;;;;;;71.17;45.63;;;;;;;6.06;87.36;101485.75;1550914;88;21472;-88
2022/11/26 09:48:17;;;;;;;74.47;45.57;;;;;;;6.05;87.52;101484.06;1451362;88;21509;-88
2022/11/26 09:50:46;;;;;;;70.25;43.92;;;;;;;6.06;87.64;101491.48;1473587;88;21486;-86
2022/11/26 09:53:21;;;;;;;73.53;43.53;;;;;;;6.08;87.91;101490.92;1474585;88;21524;-88
2022/11/26 09:55:51;;;;;;;63.40;40.33;;;;;;;6.18;88.49;101492.52;1557858;88;21295;-87
2022/11/26 09:58:43;;;;;;;68.63;44.27;;;;;;;6.18;87.17;101492.04;1393742;88;21362;-86
2022/11/26 10:01:15;;;;;;;73.20;43.87;;;;;;;6.12;86.59;101500.30;1397055;88;21376;-87
2022/11/26 10:03:41;;;;;;;70.70;41.87;;;;;;;6.12;86.96;101503.41;1406223;88;22055;-86
2022/11/26 10:06:37;;;;;;;75.23;46.20;;;;;;;6.02;86.56;101497.87;1475344;88;22432;-89
2022/11/26 10:09:27;;;;;;;64.27;39.37;;;;;;;5.99;86.76;101500.20;1537397;88;21767;-87
2022/11/26 10:12:11;;;;;;;71.23;42.13;;;;;;;5.93;87.29;101504.52;1398291;88;21664;-85
2022/11/26 10:15:05;;;;;;;89.80;49.73;;;;;;;5.93;88.00;101510.19;1406108;88;21406;-87
2022/11/26 10:18:25;;;;;;;80.53;45.90;;;;;;;5.87;88.55;101505.70;1537243;88;21502;-87
2022/11/26 10:21:12;;;;;;;93.50;50.35;;;;;;;5.79;89.27;101508.40;1439286;88;21516;-86
2022/11/26 10:24:04;;;;;;;87.73;47.83;;;;;;;5.72;90.21;101511.83;1455431;89;21647;-85
2022/11/26 10:26:35;;;;;;;96.13;53.90;;;;;;;5.69;90.71;101510.70;1381676;89;22555;-86
2022/11/26 10:29:37;;;;;;;83.55;45.60;;;;;;;5.69;91.06;101514.64;1457928;89;21674;-87
2022/11/26 10:32:26;;;;;;;93.90;49.87;;;;;;;5.64;91.53;101514.09;1452507;89;22153;-87
2022/11/26 10:34:56;;;;;;;82.13;46.47;;;;;;;5.60;91.43;101513.87;1453953;89;21522;-85
2022/11/26 10:37:26;;;;;;;85.13;49.63;;;;;;;5.60;91.23;101515.18;1512610;89;21604;-87
2022/11/26 10:40:00;;;;;;;80.50;46.50;;;;;;;5.64;91.71;101509.67;1453409;89;21663;-86
2022/11/26 10:42:30;;;;;;;72.67;41.37;;;;;;;5.74;91.90;101508.66;1451127;89;23083;-86
2022/11/26 10:45:00;;;;;;;75.90;41.37;;;;;;;5.82;91.41;101509.53;1425524;91;21517;-87
2022/11/26 10:47:30;;;;;;;84.37;47.27;;;;;;;5.86;90.87;101503.14;1434432;89;21703;-86
2022/11/26 10:50:08;;;;;;;86.03;50.03;;;;;;;5.89;90.67;101505.11;1411296;91;22320;-86
2022/11/26 10:52:37;;;;;;;90.47;50.57;;;;;;;5.85;90.32;101504.94;1453189;89;22596;-87
2022/11/26 10:55:23;;;;;;;87.50;49.33;;;;;;;5.84;90.65;101500.63;1414853;91;21657;-88
2022/11/26 10:58:04;;;;;;;92.27;49.90;;;;;;;5.76;90.82;101502.85;1456259;89;22343;-87
2022/11/26 11:00:39;;;;;;;88.40;46.93;;;;;;;5.73;91.22;101499.57;1450463;88;21523;-86
2022/11/26 11:03:25;;;;;;;89.77;50.13;;;;;;;5.76;91.47;101501.54;1471335;88;21642;-87
2022/11/26 11:06:14;;;;;;;92.03;51.67;;;;;;;5.76;91.39;101509.42;1474586;88;21697;-87
2022/11/26 11:08:41;;;;;;;86.27;48.63;;;;;;;5.75;91.34;101512.97;1468535;88;21451;-86
2022/11/26 11:11:18;;;;;;;100.83;52.43;;;;;;;5.72;91.11;101513.14;1472023;88;21531;-86
2022/11/26 11:13:46;;;;;;;94.13;51.73;;;;;;;5.74;91.32;101511.28;1471931;88;21602;-85
2022/11/26 11:16:16;;;;;;;94.80;53.67;;;;;;;5.73;91.25;101512.70;1474100;88;21509;-86
2022/11/26 11:18:55;;;;;;;100.87;53.87;;;;;;;5.74;91.60;101503.88;1475643;88;22153;-84
2022/11/26 11:21:23;;;;;;;117.13;59.67;;;;;;;5.70;91.89;101504.53;1474959;88;22663;-88
2022/11/26 11:23:49;;;;;;;123.67;64.17;;;;;;;5.71;92.16;101504.89;1475542;88;21530;-86
2022/11/26 11:26:24;;;;;;;103.93;55.60;;;;;;;5.74;92.15;101515.22;1478290;88;21690;-82
2022/11/26 11:28:54;;;;;;;111.17;57.30;;;;;;;5.78;93.04;101514.56;1468879;88;21620;-80
2022/11/26 11:31:24;;;;;;;107.20;59.07;;;;;;;5.83;96.28;101519.09;1467920;88;21620;-81
2022/11/26 11:33:54;;;;;;;99.17;54.33;;;;;;;5.87;93.11;101521.45;1473831;88;22545;-81